createdAt,value
2023-05-05T00:00:15.907Z,1.60
2023-05-05T00:02:42.881Z,1.58
2023-05-05T00:05:11.306Z,1.50
2023-05-05T00:07:37.894Z,1.80
2023-05-05T00:10:07.468Z,1.65
2023-05-05T00:12:34.426Z,1.95
2023-05-05T00:15:01.199Z,1.80
2023-05-05T00:17:27.941Z,1.70
2023-05-05T00:19:54.415Z,1.60
2023-05-05T00:22:21.029Z,1.63
2023-05-05T00:24:51.564Z,1.60
2023-05-05T00:27:18.077Z,1.60
2023-05-05T00:29:44.750Z,1.40
2023-05-05T00:32:13.086Z,1.55
2023-05-05T00:34:39.551Z,1.40
2023-05-05T00:37:06.237Z,1.30
2023-05-05T00:39:33.463Z,1.40
2023-05-05T00:41:59.938Z,1.50
2023-05-05T00:44:38.651Z,1.42
2023-05-05T00:47:05.707Z,1.40
2023-05-05T00:49:33.702Z,1.58
2023-05-05T00:52:00.659Z,1.30
2023-05-05T00:54:27.449Z,1.30
2023-05-05T00:56:54.180Z,1.50
2023-05-05T00:59:22.745Z,1.60
2023-05-05T01:01:50.730Z,1.95
2023-05-05T01:04:20.212Z,1.70
2023-05-05T01:07:04.524Z,1.70
2023-05-05T01:09:43.953Z,1.45
2023-05-05T01:12:25.960Z,1.67
2023-05-05T01:15:12.059Z,1.75
2023-05-05T01:17:45.776Z,1.67
2023-05-05T01:20:20.929Z,1.48
2023-05-05T01:22:53.790Z,1.70
2023-05-05T01:25:57.719Z,1.80
2023-05-05T01:28:29.424Z,1.40
2023-05-05T01:31:33.585Z,1.35
2023-05-05T01:34:08.412Z,1.83
2023-05-05T01:36:46.966Z,1.83
2023-05-05T01:39:18.284Z,1.70
2023-05-05T01:41:51.223Z,1.88
2023-05-05T01:44:21.711Z,1.92
2023-05-05T01:46:49.848Z,1.85
2023-05-05T01:49:16.635Z,2.10
2023-05-05T01:51:46.116Z,2.30
2023-05-05T01:54:13.966Z,2.45
2023-05-05T01:56:44.796Z,2.35
2023-05-05T01:59:14.349Z,2.30
2023-05-05T02:01:44.612Z,2.35
2023-05-05T02:04:14.486Z,2.22
2023-05-05T02:06:42.812Z,3.13
2023-05-05T02:09:12.960Z,2.83
2023-05-05T02:11:40.649Z,3.42
2023-05-05T02:14:09.426Z,2.83
2023-05-05T02:16:37.992Z,2.60
2023-05-05T02:19:05.800Z,2.83
2023-05-05T02:21:39.150Z,2.42
2023-05-05T02:24:05.937Z,2.42
2023-05-05T02:26:36.003Z,2.50
2023-05-05T02:29:20.076Z,2.50
2023-05-05T02:31:53.366Z,2.60
2023-05-05T02:34:31.534Z,3.15
2023-05-05T02:37:00.877Z,2.55
2023-05-05T02:39:38.559Z,2.40
2023-05-05T02:42:06.377Z,2.83
2023-05-05T02:44:34.582Z,2.70
2023-05-05T02:47:05.653Z,2.63
2023-05-05T02:49:32.495Z,2.40
2023-05-05T02:51:59.192Z,2.60
2023-05-05T02:54:28.226Z,2.40
2023-05-05T02:56:57.751Z,2.20
2023-05-05T02:59:48.830Z,2.13
2023-05-05T03:02:21.944Z,2.10
2023-05-05T03:05:21.280Z,2.00
2023-05-05T03:08:01.901Z,2.28
2023-05-05T03:10:38.184Z,2.33
2023-05-05T03:13:09.359Z,2.00
2023-05-05T03:15:44.900Z,2.20
2023-05-05T03:18:12.579Z,2.00
2023-05-05T03:20:42.267Z,2.10
2023-05-05T03:23:09.106Z,2.38
2023-05-05T03:25:46.436Z,2.20
2023-05-05T03:28:16.397Z,2.70
2023-05-05T03:30:44.626Z,2.60
2023-05-05T03:33:12.031Z,2.38
2023-05-05T03:35:38.671Z,2.80
2023-05-05T03:38:05.155Z,2.58
2023-05-05T03:40:43.053Z,2.50
2023-05-05T03:43:17.119Z,2.40
2023-05-05T03:45:43.747Z,2.10
2023-05-05T03:48:10.248Z,2.25
2023-05-05T03:50:36.950Z,2.10
2023-05-05T03:53:03.502Z,2.10
2023-05-05T03:55:29.983Z,2.05
2023-05-05T03:58:01.041Z,1.90
2023-05-05T04:00:27.688Z,1.85
2023-05-05T04:02:54.336Z,2.00
2023-05-05T04:05:24.434Z,1.98
2023-05-05T04:07:54.371Z,2.35
2023-05-05T04:10:21.613Z,2.42
2023-05-05T04:12:48.080Z,2.25
2023-05-05T04:15:14.797Z,2.45
2023-05-05T04:17:41.340Z,2.50
2023-05-05T04:20:17.302Z,1.98
2023-05-05T04:22:46.196Z,2.10
2023-05-05T04:25:12.696Z,2.05
2023-05-05T04:27:41.484Z,2.38
2023-05-05T04:30:09.417Z,2.30
2023-05-05T04:32:36.518Z,2.05
2023-05-05T04:35:05.490Z,2.08
2023-05-05T04:37:32.085Z,2.00
2023-05-05T04:39:58.606Z,1.92
2023-05-05T04:42:27.696Z,2.42
2023-05-05T04:44:56.385Z,2.38
2023-05-05T04:47:22.918Z,2.50
2023-05-05T04:49:54.035Z,2.60
2023-05-05T04:52:20.592Z,2.10
2023-05-05T04:54:47.138Z,2.28
2023-05-05T04:57:13.800Z,2.30
2023-05-05T04:59:40.417Z,3.38
2023-05-05T05:02:07.016Z,3.03
2023-05-05T05:04:33.953Z,2.78
2023-05-05T05:07:01.575Z,3.08
2023-05-05T05:09:28.087Z,2.72
2023-05-05T05:11:54.756Z,2.70
2023-05-05T05:14:21.399Z,2.60
2023-05-05T05:16:52.792Z,2.60
2023-05-05T05:19:19.544Z,2.35
2023-05-05T05:21:47.786Z,2.47
2023-05-05T05:24:14.236Z,2.25
2023-05-05T05:26:40.870Z,2.20
2023-05-05T05:29:07.354Z,2.42
2023-05-05T05:31:34.574Z,2.50
2023-05-05T05:34:07.707Z,2.45
2023-05-05T05:36:34.164Z,2.15
2023-05-05T05:39:00.613Z,2.20
2023-05-05T05:41:27.197Z,2.22
2023-05-05T05:43:53.704Z,2.42
2023-05-05T05:46:21.214Z,2.03
2023-05-05T05:48:53.283Z,2.00
2023-05-05T05:51:19.801Z,2.25
2023-05-05T05:53:46.358Z,2.25
2023-05-05T05:56:14.683Z,2.33
2023-05-05T05:58:45.261Z,2.00
2023-05-05T06:01:12.013Z,2.30
2023-05-05T06:03:38.723Z,2.08
2023-05-05T06:06:05.349Z,2.00
2023-05-05T06:08:32.288Z,2.15
2023-05-05T06:11:00.696Z,2.13
2023-05-05T06:13:27.187Z,2.10
2023-05-05T06:15:53.661Z,2.50
2023-05-05T06:18:22.408Z,2.03
2023-05-05T06:20:54.501Z,2.50
2023-05-05T06:23:20.980Z,2.40
2023-05-05T06:25:51.485Z,2.58
2023-05-05T06:28:18.699Z,2.53
2023-05-05T06:30:45.165Z,2.53
2023-05-05T06:33:18.155Z,2.45
2023-05-05T06:35:44.671Z,2.50
2023-05-05T06:38:13.142Z,2.20
2023-05-05T06:40:41.384Z,2.75
2023-05-05T06:43:07.890Z,2.38
2023-05-05T06:45:34.770Z,2.50
2023-05-05T06:48:01.285Z,2.88
2023-05-05T06:50:27.822Z,2.67
2023-05-05T06:52:54.390Z,2.92
2023-05-05T06:55:29.936Z,3.42
2023-05-05T06:57:56.487Z,3.00
2023-05-05T07:00:23.410Z,3.00
2023-05-05T07:02:50.220Z,2.90
2023-05-05T07:05:16.747Z,2.72
2023-05-05T07:08:00.816Z,2.78
2023-05-05T07:10:27.959Z,2.70
2023-05-05T07:12:55.063Z,2.28
2023-05-05T07:15:29.092Z,2.30
2023-05-05T07:17:56.649Z,2.72
2023-05-05T07:20:23.451Z,2.40
2023-05-05T07:23:00.575Z,2.40
2023-05-05T07:25:29.953Z,2.10
2023-05-05T07:27:56.582Z,2.15
2023-05-05T07:30:30.174Z,1.92
2023-05-05T07:32:59.679Z,1.90
2023-05-05T07:35:26.417Z,1.70
2023-05-05T07:37:53.193Z,1.67
2023-05-05T07:40:19.765Z,1.40
2023-05-05T07:42:47.534Z,1.83
2023-05-05T07:45:15.755Z,1.40
2023-05-05T07:47:42.502Z,1.35
2023-05-05T07:50:09.474Z,1.70
2023-05-05T07:52:46.828Z,1.65
2023-05-05T07:55:18.154Z,1.65
2023-05-05T07:57:47.682Z,1.25
2023-05-05T08:00:14.619Z,1.70
2023-05-05T08:02:41.586Z,1.30
2023-05-05T08:05:10.691Z,1.10
2023-05-05T08:07:41.095Z,1.45
2023-05-05T08:10:14.798Z,1.20
2023-05-05T08:12:41.354Z,1.60
2023-05-05T08:15:08.675Z,1.30
2023-05-05T08:17:47.170Z,1.50
2023-05-05T08:20:13.974Z,1.30
2023-05-05T08:22:43.049Z,1.38
2023-05-05T08:25:14.824Z,1.60
2023-05-05T08:27:42.891Z,1.52
2023-05-05T08:30:10.335Z,1.40
2023-05-05T08:32:38.500Z,1.30
2023-05-05T08:35:06.699Z,1.60
2023-05-05T08:37:33.636Z,1.30
2023-05-05T08:40:00.515Z,1.73
2023-05-05T08:42:36.973Z,1.38
2023-05-05T08:45:05.969Z,1.80
2023-05-05T08:47:33.271Z,1.20
2023-05-05T08:50:00.211Z,1.50
2023-05-05T08:52:33.593Z,1.80
2023-05-05T08:55:28.399Z,1.88
2023-05-05T08:57:59.481Z,2.08
2023-05-05T09:00:27.378Z,1.85
2023-05-05T09:02:57.170Z,1.67
2023-05-05T09:05:28.915Z,2.15
2023-05-05T09:07:55.680Z,2.05
2023-05-05T09:10:22.230Z,2.22
2023-05-05T09:12:53.319Z,2.10
2023-05-05T09:15:19.807Z,1.70
2023-05-05T09:17:48.725Z,2.05
2023-05-05T09:20:17.295Z,1.83
2023-05-05T09:22:46.186Z,1.63
2023-05-05T09:25:17.962Z,1.75
2023-05-05T09:27:47.442Z,1.42
2023-05-05T09:30:23.616Z,1.50
2023-05-05T09:32:52.363Z,1.42
2023-05-05T09:35:20.080Z,1.30
2023-05-05T09:37:47.035Z,1.52
2023-05-05T09:40:17.647Z,1.10
2023-05-05T09:42:44.930Z,1.33
2023-05-05T09:45:17.339Z,1.20
2023-05-05T09:47:46.027Z,0.82
2023-05-05T09:50:18.685Z,1.10
2023-05-05T09:53:01.460Z,0.98
2023-05-05T09:55:28.773Z,1.10
2023-05-05T09:57:58.650Z,1.20
2023-05-05T10:00:39.108Z,1.20
2023-05-05T10:03:05.861Z,1.10
2023-05-05T10:05:32.434Z,1.17
2023-05-05T10:08:13.419Z,1.23
2023-05-05T10:11:07.013Z,1.00
2023-05-05T10:13:42.339Z,0.80
2023-05-05T10:16:09.790Z,1.27
2023-05-05T10:18:38.758Z,0.90
2023-05-05T10:21:06.288Z,1.10
2023-05-05T10:24:08.080Z,1.05
2023-05-05T10:26:40.623Z,1.10
2023-05-05T10:29:21.544Z,0.90
2023-05-05T10:31:59.090Z,1.15
2023-05-05T10:34:42.563Z,1.10
2023-05-05T10:37:09.224Z,1.20
2023-05-05T10:39:36.240Z,1.00
2023-05-05T10:42:13.510Z,1.40
2023-05-05T10:44:41.362Z,1.10
2023-05-05T10:47:08.198Z,1.20
2023-05-05T10:49:55.256Z,1.00
2023-05-05T10:52:32.208Z,1.10
2023-05-05T10:55:11.492Z,1.30
2023-05-05T10:57:41.244Z,1.10
2023-05-05T11:00:09.130Z,1.02
2023-05-05T11:02:36.762Z,1.00
2023-05-05T11:05:06.971Z,1.30
2023-05-05T11:07:34.659Z,1.05
2023-05-05T11:10:04.679Z,1.20
2023-05-05T11:12:32.691Z,1.50
2023-05-05T11:15:28.217Z,1.13
2023-05-05T11:17:56.480Z,1.55
2023-05-05T11:20:37.150Z,1.40
2023-05-05T11:23:04.020Z,1.30
2023-05-05T11:25:37.237Z,1.10
2023-05-05T11:28:13.309Z,1.10
2023-05-05T11:30:54.888Z,1.00
2023-05-05T11:33:32.758Z,1.13
2023-05-05T11:36:04.200Z,1.20
2023-05-05T11:39:13.768Z,1.50
2023-05-05T11:42:10.786Z,1.17
2023-05-05T11:44:37.929Z,1.35
2023-05-05T11:47:04.446Z,1.52
2023-05-05T11:49:35.112Z,1.10
2023-05-05T11:52:06.657Z,1.35
2023-05-05T11:54:35.424Z,1.30
2023-05-05T11:57:05.259Z,1.30
2023-05-05T11:59:38.800Z,1.15
2023-05-05T12:02:05.594Z,1.17
2023-05-05T12:04:32.501Z,1.15
2023-05-05T12:07:01.872Z,1.33
2023-05-05T12:09:28.749Z,1.20
2023-05-05T12:11:58.757Z,1.20
2023-05-05T12:14:25.995Z,1.25
2023-05-05T12:17:07.863Z,1.40
2023-05-05T12:19:39.881Z,1.23
2023-05-05T12:22:06.388Z,1.50
2023-05-05T12:24:33.015Z,1.05
2023-05-05T12:27:11.423Z,1.10
2023-05-05T12:29:38.230Z,1.30
2023-05-05T12:32:05.187Z,1.25
2023-05-05T12:34:32.500Z,1.00
2023-05-05T12:36:59.263Z,1.30
2023-05-05T12:39:38.319Z,1.13
2023-05-05T12:42:06.300Z,1.30
2023-05-05T12:44:38.482Z,1.15
2023-05-05T12:47:05.674Z,1.38
2023-05-05T12:49:34.951Z,1.17
2023-05-05T12:52:01.621Z,1.20
2023-05-05T12:54:29.820Z,1.30
2023-05-05T12:56:59.698Z,1.70
2023-05-05T12:59:27.524Z,1.42
2023-05-05T13:02:08.914Z,1.40
2023-05-05T13:04:48.370Z,1.50
2023-05-05T13:07:18.509Z,1.27
2023-05-05T13:09:46.049Z,1.27
2023-05-05T13:12:12.746Z,1.20
2023-05-05T13:14:46.301Z,1.00
2023-05-05T13:17:13.806Z,1.55
2023-05-05T13:19:46.203Z,1.33
2023-05-05T13:22:17.815Z,1.52
2023-05-05T13:24:51.641Z,1.35
2023-05-05T13:27:19.718Z,1.00
2023-05-05T13:29:46.774Z,1.02
2023-05-05T13:32:13.265Z,1.08
2023-05-05T13:34:39.809Z,1.20
2023-05-05T13:37:06.629Z,1.10
2023-05-05T13:39:33.278Z,1.15
2023-05-05T13:42:08.606Z,1.30
2023-05-05T13:44:40.565Z,1.30
2023-05-05T13:47:09.084Z,1.30
2023-05-05T13:49:36.106Z,1.13
2023-05-05T13:52:04.983Z,1.17
2023-05-05T13:54:31.667Z,1.20
2023-05-05T13:56:58.304Z,1.33
2023-05-05T13:59:25.861Z,1.17
2023-05-05T14:01:52.371Z,1.00
2023-05-05T14:04:25.580Z,1.55
2023-05-05T14:06:53.543Z,1.85
2023-05-05T14:09:20.134Z,1.75
2023-05-05T14:11:48.333Z,1.52
2023-05-05T14:14:14.872Z,1.20
2023-05-05T14:16:43.258Z,1.08
2023-05-05T14:19:10.096Z,1.23
2023-05-05T14:21:36.538Z,1.65
2023-05-05T14:24:03.071Z,1.50
2023-05-05T14:26:29.750Z,1.70
2023-05-05T14:28:58.103Z,1.67
2023-05-05T14:31:24.650Z,1.80
2023-05-05T14:33:51.426Z,1.92
2023-05-05T14:36:17.938Z,1.70
2023-05-05T14:38:44.551Z,1.60
2023-05-05T14:41:23.046Z,1.90
2023-05-05T14:43:52.267Z,1.85
2023-05-05T14:46:19.020Z,1.45
2023-05-05T14:48:47.404Z,1.83
2023-05-05T14:51:15.926Z,1.52
2023-05-05T14:53:42.720Z,1.58
2023-05-05T14:56:09.478Z,1.75
2023-05-05T14:58:36.002Z,1.70
2023-05-05T15:01:02.492Z,1.92
2023-05-05T15:03:30.902Z,1.60
2023-05-05T15:05:57.862Z,1.50
2023-05-05T15:08:24.468Z,1.50
2023-05-05T15:10:52.728Z,1.40
2023-05-05T15:13:19.452Z,1.77
2023-05-05T15:15:46.149Z,1.50
2023-05-05T15:18:17.104Z,1.30
2023-05-05T15:20:43.629Z,1.50
2023-05-05T15:23:10.182Z,1.60
2023-05-05T15:25:36.788Z,1.58
2023-05-05T15:28:03.378Z,1.70
2023-05-05T15:30:32.121Z,1.80
2023-05-05T15:32:58.825Z,1.77
2023-05-05T15:35:25.676Z,1.88
2023-05-05T15:37:53.408Z,2.10
2023-05-05T15:40:21.719Z,1.75
2023-05-05T15:42:52.183Z,1.60
2023-05-05T15:45:18.774Z,1.63
2023-05-05T15:47:46.433Z,1.50
2023-05-05T15:50:13.003Z,1.30
2023-05-05T15:52:39.670Z,1.50
2023-05-05T15:55:11.241Z,1.50
2023-05-05T15:57:39.830Z,1.52
2023-05-05T16:00:08.351Z,1.35
2023-05-05T16:02:41.518Z,1.38
2023-05-05T16:05:09.215Z,1.40
2023-05-05T16:07:35.887Z,1.38
2023-05-05T16:10:07.176Z,1.50
2023-05-05T16:12:34.339Z,1.50
2023-05-05T16:15:01.216Z,1.50
2023-05-05T16:17:27.850Z,1.30
2023-05-05T16:19:54.328Z,1.40
2023-05-05T16:22:21.050Z,1.52
2023-05-05T16:24:49.460Z,1.50
2023-05-05T16:27:16.507Z,1.55
2023-05-05T16:29:42.996Z,1.20
2023-05-05T16:32:09.683Z,1.30
2023-05-05T16:34:36.206Z,1.50
2023-05-05T16:37:02.672Z,6.25
2023-05-05T16:39:33.692Z,6.68
2023-05-05T16:42:00.183Z,4.97
2023-05-05T16:44:26.717Z,3.38
2023-05-05T16:46:55.357Z,5.72
2023-05-05T16:49:24.121Z,6.18
2023-05-05T16:51:54.507Z,5.38
2023-05-05T16:54:21.195Z,5.28
2023-05-05T16:56:47.682Z,3.70
2023-05-05T16:59:16.455Z,3.45
2023-05-05T17:01:43.659Z,3.08
2023-05-05T17:04:11.009Z,2.97
2023-05-05T17:06:37.537Z,2.78
2023-05-05T17:09:06.446Z,2.33
2023-05-05T17:11:32.888Z,2.50
2023-05-05T17:13:59.393Z,2.15
2023-05-05T17:16:36.529Z,1.90
2023-05-05T17:19:03.519Z,1.60
2023-05-05T17:21:30.063Z,1.90
2023-05-05T17:23:58.418Z,2.00
2023-05-05T17:26:25.304Z,4.32
2023-05-05T17:28:52.031Z,4.75
2023-05-05T17:31:18.683Z,6.40
2023-05-05T17:33:45.136Z,3.70
2023-05-05T17:36:11.712Z,2.63
2023-05-05T17:38:40.376Z,3.10
2023-05-05T17:41:08.617Z,2.97
2023-05-05T17:43:35.099Z,2.50
2023-05-05T17:46:03.357Z,2.30
2023-05-05T17:48:29.914Z,2.70
2023-05-05T17:50:56.636Z,2.50
2023-05-05T17:53:29.787Z,2.17
2023-05-05T17:55:56.314Z,2.40
2023-05-05T17:58:22.878Z,2.40
2023-05-05T18:00:51.343Z,2.50
2023-05-05T18:03:17.940Z,2.80
2023-05-05T18:05:44.563Z,2.20
2023-05-05T18:08:13.427Z,2.22
2023-05-05T18:10:39.896Z,2.30
2023-05-05T18:13:06.606Z,2.83
2023-05-05T18:15:33.393Z,2.35
2023-05-05T18:18:01.135Z,2.20
2023-05-05T18:20:27.650Z,2.28
2023-05-05T18:22:54.290Z,2.25
2023-05-05T18:25:20.888Z,2.13
2023-05-05T18:27:47.470Z,2.22
2023-05-05T18:30:26.345Z,2.40
2023-05-05T18:32:53.414Z,2.00
2023-05-05T18:35:19.900Z,2.00
2023-05-05T18:37:46.646Z,2.20
2023-05-05T18:40:13.477Z,2.28
2023-05-05T18:42:40.010Z,2.13
2023-05-05T18:45:09.587Z,2.33
2023-05-05T18:47:38.196Z,1.95
2023-05-05T18:50:05.788Z,2.45
2023-05-05T18:52:33.552Z,2.00
2023-05-05T18:55:02.274Z,2.10
2023-05-05T18:57:28.936Z,2.08
2023-05-05T18:59:57.194Z,2.10
2023-05-05T19:02:23.729Z,2.20
2023-05-05T19:04:50.265Z,2.00
2023-05-05T19:10:09.093Z,1.63
2023-05-05T19:12:42.173Z,2.40
2023-05-05T19:15:09.153Z,2.17
2023-05-05T19:17:38.963Z,2.50
2023-05-05T19:20:06.154Z,2.05
2023-05-05T19:22:32.656Z,2.40
2023-05-05T19:24:59.134Z,2.20
2023-05-05T19:27:31.838Z,1.88
2023-05-05T19:29:58.304Z,1.58
2023-05-05T19:32:28.517Z,2.08
2023-05-05T19:34:56.851Z,2.40
2023-05-05T19:37:23.517Z,2.20
2023-05-05T19:39:51.123Z,2.00
2023-05-05T19:42:18.326Z,2.08
2023-05-05T19:44:45.126Z,2.20
2023-05-05T19:47:11.779Z,2.10
2023-05-05T19:49:38.331Z,2.08
2023-05-05T19:52:05.058Z,1.85
2023-05-05T19:54:31.624Z,2.20
2023-05-05T19:57:00.358Z,2.00
2023-05-05T19:59:26.913Z,2.42
2023-05-05T20:01:53.432Z,1.98
2023-05-05T20:04:22.272Z,2.00
2023-05-05T20:06:48.940Z,1.77
2023-05-05T20:09:15.476Z,1.95
2023-05-05T20:11:42.135Z,2.10
2023-05-05T20:14:08.793Z,1.80
2023-05-05T20:16:35.431Z,1.88
2023-05-05T20:19:02.332Z,2.00
2023-05-05T20:21:29.116Z,2.30
2023-05-05T20:23:55.659Z,1.95
2023-05-05T20:26:26.678Z,1.85
2023-05-05T20:28:53.188Z,1.90
2023-05-05T20:31:21.828Z,2.05
2023-05-05T20:33:50.145Z,2.10
2023-05-05T20:36:17.640Z,2.40
2023-05-05T20:38:44.218Z,1.90
2023-05-05T20:41:17.811Z,1.90
2023-05-05T20:43:44.351Z,2.25
2023-05-05T20:46:13.834Z,2.08
2023-05-05T20:48:46.789Z,2.10
2023-05-05T20:51:13.397Z,2.22
2023-05-05T20:53:39.945Z,2.13
2023-05-05T20:56:09.407Z,2.20
2023-05-05T20:58:36.177Z,1.98
2023-05-05T21:01:02.748Z,2.17
2023-05-05T21:03:29.500Z,2.15
2023-05-05T21:05:56.108Z,2.00
2023-05-05T21:08:22.661Z,1.77
2023-05-05T21:10:55.786Z,2.00
2023-05-05T21:13:23.004Z,2.38
2023-05-05T21:15:49.642Z,2.13
2023-05-05T21:18:18.338Z,2.25
2023-05-05T21:20:44.841Z,2.15
2023-05-05T21:23:11.866Z,2.10
2023-05-05T21:25:40.259Z,2.15
2023-05-05T21:28:06.738Z,1.92
2023-05-05T21:30:35.148Z,2.38
2023-05-05T21:33:03.730Z,2.40
2023-05-05T21:35:30.314Z,2.05
2023-05-05T21:37:56.947Z,2.65
2023-05-05T21:40:23.597Z,2.08
2023-05-05T21:42:53.678Z,2.05
2023-05-05T21:45:20.383Z,2.25
2023-05-05T21:47:48.905Z,2.28
2023-05-05T21:50:15.472Z,2.80
2023-05-05T21:52:42.202Z,2.50
2023-05-05T21:55:11.114Z,2.13
2023-05-05T21:57:37.609Z,2.47
2023-05-05T22:00:06.057Z,2.50
2023-05-05T22:02:35.396Z,2.50
2023-05-05T22:05:04.027Z,2.10
2023-05-05T22:07:32.324Z,2.13
2023-05-05T22:09:59.652Z,1.95
2023-05-05T22:12:26.130Z,2.30
2023-05-05T22:14:52.662Z,2.15
2023-05-05T22:17:25.698Z,1.95
2023-05-05T22:19:52.911Z,2.10
2023-05-05T22:22:19.632Z,2.10
2023-05-05T22:24:46.291Z,2.40
2023-05-05T22:27:12.811Z,1.95
2023-05-05T22:29:39.343Z,2.22
2023-05-05T22:32:07.736Z,1.98
2023-05-05T22:34:36.602Z,2.42
2023-05-05T22:37:03.215Z,3.00
2023-05-05T22:39:31.493Z,2.80
2023-05-05T22:42:01.048Z,2.53
2023-05-05T22:44:27.616Z,2.20
2023-05-05T22:46:54.408Z,2.47
2023-05-05T22:49:21.207Z,2.75
2023-05-05T22:51:48.144Z,2.97
2023-05-05T22:54:16.450Z,2.15
2023-05-05T22:56:43.492Z,2.13
2023-05-05T22:59:10.005Z,2.22
2023-05-05T23:01:37.368Z,2.08
2023-05-05T23:04:04.233Z,2.15
2023-05-05T23:06:30.696Z,2.13
2023-05-05T23:08:59.375Z,1.85
2023-05-05T23:11:26.582Z,1.90
2023-05-05T23:13:53.485Z,2.13
2023-05-05T23:16:20.217Z,2.03
2023-05-05T23:18:46.764Z,2.22
2023-05-05T23:21:13.285Z,1.95
2023-05-05T23:23:39.952Z,1.90
2023-05-05T23:26:06.515Z,2.22
2023-05-05T23:28:33.226Z,2.10
2023-05-05T23:30:59.971Z,2.38
2023-05-05T23:33:26.812Z,2.08
2023-05-05T23:35:54.223Z,2.08
2023-05-05T23:38:28.834Z,2.05
2023-05-05T23:40:55.317Z,2.35
2023-05-05T23:43:21.911Z,2.10
2023-05-05T23:45:48.591Z,1.70
2023-05-05T23:48:15.085Z,1.70
2023-05-05T23:50:44.011Z,2.05
2023-05-05T23:53:12.841Z,2.10
2023-05-05T23:55:39.348Z,2.05
2023-05-05T23:58:05.894Z,1.80
